sensor_id;sensor_type;location;lat;lon;timestamp;P1;durP1;ratioP1;P2;durP2;ratioP2
16504;SDS011;8365;51.030;4.696;2024-03-08T00:01:36;34.20;;;22.60;;
16504;SDS011;8365;51.030;4.696;2024-03-08T00:04:06;31.53;;;21.73;;
16504;SDS011;8365;51.030;4.696;2024-03-08T00:06:38;35.50;;;22.80;;
16504;SDS011;8365;51.030;4.696;2024-03-08T00:09:09;35.83;;;23.27;;
16504;SDS011;8365;51.030;4.696;2024-03-08T00:11:40;35.60;;;22.80;;
16504;SDS011;8365;51.030;4.696;2024-03-08T00:14:10;33.00;;;23.03;;
16504;SDS011;8365;51.030;4.696;2024-03-08T00:16:41;36.47;;;23.10;;
16504;SDS011;8365;51.030;4.696;2024-03-08T00:19:13;35.77;;;23.20;;
16504;SDS011;8365;51.030;4.696;2024-03-08T00:21:44;35.73;;;23.23;;
16504;SDS011;8365;51.030;4.696;2024-03-08T00:24:15;39.60;;;23.47;;
16504;SDS011;8365;51.030;4.696;2024-03-08T00:26:49;35.47;;;23.50;;
16504;SDS011;8365;51.030;4.696;2024-03-08T00:29:20;35.77;;;22.27;;
16504;SDS011;8365;51.030;4.696;2024-03-08T00:31:53;32.07;;;22.40;;
16504;SDS011;8365;51.030;4.696;2024-03-08T00:34:23;35.17;;;24.00;;
16504;SDS011;8365;51.030;4.696;2024-03-08T00:36:54;37.00;;;22.93;;
16504;SDS011;8365;51.030;4.696;2024-03-08T00:39:25;37.87;;;23.73;;
16504;SDS011;8365;51.030;4.696;2024-03-08T00:41:56;35.27;;;23.40;;
16504;SDS011;8365;51.030;4.696;2024-03-08T00:44:26;36.23;;;24.97;;
16504;SDS011;8365;51.030;4.696;2024-03-08T00:46:57;37.00;;;25.50;;
16504;SDS011;8365;51.030;4.696;2024-03-08T00:49:29;36.53;;;23.83;;
16504;SDS011;8365;51.030;4.696;2024-03-08T00:51:59;39.60;;;25.00;;
16504;SDS011;8365;51.030;4.696;2024-03-08T00:54:30;33.63;;;22.23;;
16504;SDS011;8365;51.030;4.696;2024-03-08T00:57:00;33.70;;;22.70;;
16504;SDS011;8365;51.030;4.696;2024-03-08T00:59:32;37.50;;;23.83;;
16504;SDS011;8365;51.030;4.696;2024-03-08T01:02:03;36.30;;;24.03;;
16504;SDS011;8365;51.030;4.696;2024-03-08T01:04:33;41.10;;;24.50;;
16504;SDS011;8365;51.030;4.696;2024-03-08T01:07:07;39.13;;;25.20;;
16504;SDS011;8365;51.030;4.696;2024-03-08T01:09:37;36.60;;;23.17;;
16504;SDS011;8365;51.030;4.696;2024-03-08T01:12:07;35.90;;;23.93;;
16504;SDS011;8365;51.030;4.696;2024-03-08T01:14:38;37.20;;;25.07;;
16504;SDS011;8365;51.030;4.696;2024-03-08T01:17:09;39.67;;;24.47;;
16504;SDS011;8365;51.030;4.696;2024-03-08T01:19:39;35.13;;;23.63;;
16504;SDS011;8365;51.030;4.696;2024-03-08T01:22:10;35.07;;;24.60;;
16504;SDS011;8365;51.030;4.696;2024-03-08T01:24:41;33.23;;;23.27;;
16504;SDS011;8365;51.030;4.696;2024-03-08T01:27:11;36.50;;;24.63;;
16504;SDS011;8365;51.030;4.696;2024-03-08T01:29:42;33.47;;;23.80;;
16504;SDS011;8365;51.030;4.696;2024-03-08T01:32:13;35.00;;;24.17;;
16504;SDS011;8365;51.030;4.696;2024-03-08T01:34:49;36.80;;;24.80;;
16504;SDS011;8365;51.030;4.696;2024-03-08T01:37:19;32.33;;;22.63;;
16504;SDS011;8365;51.030;4.696;2024-03-08T01:39:52;35.23;;;25.23;;
16504;SDS011;8365;51.030;4.696;2024-03-08T01:42:23;35.93;;;25.13;;
16504;SDS011;8365;51.030;4.696;2024-03-08T01:44:53;32.30;;;23.83;;
16504;SDS011;8365;51.030;4.696;2024-03-08T01:47:24;34.47;;;24.13;;
16504;SDS011;8365;51.030;4.696;2024-03-08T01:49:55;30.97;;;22.83;;
16504;SDS011;8365;51.030;4.696;2024-03-08T01:52:26;35.77;;;23.97;;
16504;SDS011;8365;51.030;4.696;2024-03-08T01:55:00;33.40;;;24.30;;
16504;SDS011;8365;51.030;4.696;2024-03-08T01:57:33;33.43;;;23.23;;
16504;SDS011;8365;51.030;4.696;2024-03-08T02:00:05;36.53;;;24.37;;
16504;SDS011;8365;51.030;4.696;2024-03-08T02:02:36;30.17;;;23.17;;
16504;SDS011;8365;51.030;4.696;2024-03-08T02:05:07;36.23;;;24.80;;
16504;SDS011;8365;51.030;4.696;2024-03-08T02:07:43;31.33;;;23.57;;
16504;SDS011;8365;51.030;4.696;2024-03-08T02:10:14;36.03;;;23.43;;
16504;SDS011;8365;51.030;4.696;2024-03-08T02:12:45;33.17;;;24.07;;
16504;SDS011;8365;51.030;4.696;2024-03-08T02:15:17;35.30;;;24.53;;
16504;SDS011;8365;51.030;4.696;2024-03-08T02:17:51;33.60;;;23.53;;
16504;SDS011;8365;51.030;4.696;2024-03-08T02:20:23;34.63;;;24.60;;
16504;SDS011;8365;51.030;4.696;2024-03-08T02:22:53;33.47;;;24.60;;
16504;SDS011;8365;51.030;4.696;2024-03-08T02:25:24;32.53;;;24.10;;
16504;SDS011;8365;51.030;4.696;2024-03-08T02:27:55;32.47;;;23.87;;
16504;SDS011;8365;51.030;4.696;2024-03-08T02:30:25;35.13;;;25.43;;
16504;SDS011;8365;51.030;4.696;2024-03-08T02:33:01;35.47;;;23.50;;
16504;SDS011;8365;51.030;4.696;2024-03-08T02:35:32;30.50;;;23.87;;
16504;SDS011;8365;51.030;4.696;2024-03-08T02:38:03;31.60;;;24.33;;
16504;SDS011;8365;51.030;4.696;2024-03-08T02:40:34;34.77;;;23.40;;
16504;SDS011;8365;51.030;4.696;2024-03-08T02:43:05;32.50;;;23.53;;
16504;SDS011;8365;51.030;4.696;2024-03-08T02:45:35;36.47;;;25.17;;
16504;SDS011;8365;51.030;4.696;2024-03-08T02:48:08;35.17;;;25.43;;
16504;SDS011;8365;51.030;4.696;2024-03-08T02:50:39;29.17;;;22.80;;
16504;SDS011;8365;51.030;4.696;2024-03-08T02:53:10;33.80;;;24.90;;
16504;SDS011;8365;51.030;4.696;2024-03-08T02:55:42;36.00;;;25.30;;
16504;SDS011;8365;51.030;4.696;2024-03-08T02:58:13;34.70;;;24.30;;
16504;SDS011;8365;51.030;4.696;2024-03-08T03:00:44;33.23;;;23.73;;
16504;SDS011;8365;51.030;4.696;2024-03-08T03:03:15;31.83;;;24.13;;
16504;SDS011;8365;51.030;4.696;2024-03-08T03:05:46;36.17;;;24.17;;
16504;SDS011;8365;51.030;4.696;2024-03-08T03:08:16;34.77;;;24.73;;
16504;SDS011;8365;51.030;4.696;2024-03-08T03:10:47;33.43;;;24.07;;
16504;SDS011;8365;51.030;4.696;2024-03-08T03:13:18;35.37;;;25.30;;
16504;SDS011;8365;51.030;4.696;2024-03-08T03:15:49;33.33;;;24.73;;
16504;SDS011;8365;51.030;4.696;2024-03-08T03:18:20;32.30;;;24.03;;
16504;SDS011;8365;51.030;4.696;2024-03-08T03:20:53;33.03;;;23.73;;
16504;SDS011;8365;51.030;4.696;2024-03-08T03:23:24;36.30;;;25.33;;
16504;SDS011;8365;51.030;4.696;2024-03-08T03:25:56;30.73;;;23.37;;
16504;SDS011;8365;51.030;4.696;2024-03-08T03:28:27;33.73;;;24.10;;
16504;SDS011;8365;51.030;4.696;2024-03-08T03:30:58;35.17;;;24.00;;
16504;SDS011;8365;51.030;4.696;2024-03-08T03:33:29;37.63;;;24.90;;
16504;SDS011;8365;51.030;4.696;2024-03-08T03:36:00;33.93;;;23.47;;
16504;SDS011;8365;51.030;4.696;2024-03-08T03:38:31;34.93;;;25.40;;
16504;SDS011;8365;51.030;4.696;2024-03-08T03:41:04;33.10;;;24.13;;
16504;SDS011;8365;51.030;4.696;2024-03-08T03:43:40;33.97;;;23.60;;
16504;SDS011;8365;51.030;4.696;2024-03-08T03:46:10;33.20;;;25.03;;
16504;SDS011;8365;51.030;4.696;2024-03-08T03:48:41;34.33;;;24.47;;
16504;SDS011;8365;51.030;4.696;2024-03-08T03:51:12;34.90;;;25.20;;
16504;SDS011;8365;51.030;4.696;2024-03-08T03:53:45;36.43;;;24.60;;
16504;SDS011;8365;51.030;4.696;2024-03-08T03:56:16;32.80;;;23.57;;
16504;SDS011;8365;51.030;4.696;2024-03-08T03:58:48;34.00;;;24.33;;
16504;SDS011;8365;51.030;4.696;2024-03-08T04:01:19;34.73;;;24.43;;
16504;SDS011;8365;51.030;4.696;2024-03-08T04:03:50;33.00;;;23.87;;
16504;SDS011;8365;51.030;4.696;2024-03-08T04:06:20;30.87;;;23.53;;
16504;SDS011;8365;51.030;4.696;2024-03-08T04:08:52;34.87;;;24.53;;
16504;SDS011;8365;51.030;4.696;2024-03-08T04:11:23;34.97;;;24.80;;
16504;SDS011;8365;51.030;4.696;2024-03-08T04:13:53;33.77;;;24.13;;
16504;SDS011;8365;51.030;4.696;2024-03-08T04:16:24;31.30;;;23.30;;
16504;SDS011;8365;51.030;4.696;2024-03-08T04:19:00;36.50;;;25.40;;
16504;SDS011;8365;51.030;4.696;2024-03-08T04:21:34;34.83;;;24.03;;
16504;SDS011;8365;51.030;4.696;2024-03-08T04:24:04;37.50;;;24.83;;
16504;SDS011;8365;51.030;4.696;2024-03-08T04:26:35;34.60;;;24.07;;
16504;SDS011;8365;51.030;4.696;2024-03-08T04:29:06;39.30;;;24.93;;
16504;SDS011;8365;51.030;4.696;2024-03-08T04:31:39;36.07;;;24.53;;
16504;SDS011;8365;51.030;4.696;2024-03-08T04:34:09;38.90;;;26.40;;
16504;SDS011;8365;51.030;4.696;2024-03-08T04:36:40;35.97;;;24.63;;
16504;SDS011;8365;51.030;4.696;2024-03-08T04:39:13;38.23;;;24.90;;
16504;SDS011;8365;51.030;4.696;2024-03-08T04:41:43;35.07;;;24.17;;
16504;SDS011;8365;51.030;4.696;2024-03-08T04:44:14;33.57;;;24.87;;
16504;SDS011;8365;51.030;4.696;2024-03-08T04:46:45;36.43;;;25.90;;
16504;SDS011;8365;51.030;4.696;2024-03-08T04:49:16;35.60;;;24.43;;
16504;SDS011;8365;51.030;4.696;2024-03-08T04:51:47;34.03;;;25.17;;
16504;SDS011;8365;51.030;4.696;2024-03-08T04:54:17;38.43;;;26.07;;
16504;SDS011;8365;51.030;4.696;2024-03-08T04:56:48;38.50;;;24.60;;
16504;SDS011;8365;51.030;4.696;2024-03-08T04:59:19;37.83;;;24.13;;
16504;SDS011;8365;51.030;4.696;2024-03-08T05:01:50;33.73;;;24.73;;
16504;SDS011;8365;51.030;4.696;2024-03-08T05:04:21;32.50;;;24.00;;
16504;SDS011;8365;51.030;4.696;2024-03-08T05:06:52;37.90;;;25.20;;
16504;SDS011;8365;51.030;4.696;2024-03-08T05:09:24;38.20;;;25.10;;
16504;SDS011;8365;51.030;4.696;2024-03-08T05:11:55;36.13;;;24.80;;
16504;SDS011;8365;51.030;4.696;2024-03-08T05:14:26;37.43;;;26.47;;
16504;SDS011;8365;51.030;4.696;2024-03-08T05:16:57;34.87;;;24.90;;
16504;SDS011;8365;51.030;4.696;2024-03-08T05:19:27;35.03;;;24.53;;
16504;SDS011;8365;51.030;4.696;2024-03-08T05:22:00;38.67;;;25.93;;
16504;SDS011;8365;51.030;4.696;2024-03-08T05:24:33;34.03;;;24.83;;
16504;SDS011;8365;51.030;4.696;2024-03-08T05:27:03;36.07;;;24.17;;
16504;SDS011;8365;51.030;4.696;2024-03-08T05:29:36;32.80;;;24.10;;
16504;SDS011;8365;51.030;4.696;2024-03-08T05:32:07;35.90;;;24.50;;
16504;SDS011;8365;51.030;4.696;2024-03-08T05:34:39;34.90;;;23.40;;
16504;SDS011;8365;51.030;4.696;2024-03-08T05:37:10;37.73;;;25.57;;
16504;SDS011;8365;51.030;4.696;2024-03-08T05:39:41;38.33;;;24.60;;
16504;SDS011;8365;51.030;4.696;2024-03-08T05:42:11;36.33;;;25.27;;
16504;SDS011;8365;51.030;4.696;2024-03-08T05:44:42;34.43;;;23.97;;
16504;SDS011;8365;51.030;4.696;2024-03-08T05:47:13;39.80;;;25.47;;
16504;SDS011;8365;51.030;4.696;2024-03-08T05:49:44;38.13;;;25.60;;
16504;SDS011;8365;51.030;4.696;2024-03-08T05:52:14;37.77;;;25.53;;
16504;SDS011;8365;51.030;4.696;2024-03-08T05:54:45;38.53;;;25.33;;
16504;SDS011;8365;51.030;4.696;2024-03-08T05:57:17;36.27;;;24.13;;
16504;SDS011;8365;51.030;4.696;2024-03-08T05:59:47;36.23;;;24.93;;
16504;SDS011;8365;51.030;4.696;2024-03-08T06:02:18;34.50;;;23.60;;
16504;SDS011;8365;51.030;4.696;2024-03-08T06:04:49;40.23;;;24.40;;
16504;SDS011;8365;51.030;4.696;2024-03-08T06:07:19;36.73;;;24.93;;
16504;SDS011;8365;51.030;4.696;2024-03-08T06:09:50;38.10;;;24.77;;
16504;SDS011;8365;51.030;4.696;2024-03-08T06:12:23;38.43;;;25.40;;
16504;SDS011;8365;51.030;4.696;2024-03-08T06:14:58;39.53;;;24.10;;
16504;SDS011;8365;51.030;4.696;2024-03-08T06:17:32;37.07;;;25.03;;
16504;SDS011;8365;51.030;4.696;2024-03-08T06:20:02;37.43;;;24.03;;
16504;SDS011;8365;51.030;4.696;2024-03-08T06:22:34;34.40;;;23.77;;
16504;SDS011;8365;51.030;4.696;2024-03-08T06:25:09;35.10;;;24.40;;
16504;SDS011;8365;51.030;4.696;2024-03-08T06:27:46;33.73;;;23.53;;
16504;SDS011;8365;51.030;4.696;2024-03-08T06:30:16;38.93;;;24.40;;
16504;SDS011;8365;51.030;4.696;2024-03-08T06:32:47;36.80;;;24.70;;
16504;SDS011;8365;51.030;4.696;2024-03-08T06:35:18;37.43;;;24.60;;
16504;SDS011;8365;51.030;4.696;2024-03-08T06:37:50;35.83;;;23.27;;
16504;SDS011;8365;51.030;4.696;2024-03-08T06:40:20;36.70;;;23.80;;
16504;SDS011;8365;51.030;4.696;2024-03-08T06:42:51;34.73;;;23.70;;
16504;SDS011;8365;51.030;4.696;2024-03-08T06:45:22;34.30;;;23.67;;
16504;SDS011;8365;51.030;4.696;2024-03-08T06:47:53;38.40;;;24.63;;
16504;SDS011;8365;51.030;4.696;2024-03-08T06:50:26;35.03;;;24.20;;
16504;SDS011;8365;51.030;4.696;2024-03-08T06:52:56;40.37;;;24.33;;
16504;SDS011;8365;51.030;4.696;2024-03-08T06:55:27;33.77;;;23.20;;
16504;SDS011;8365;51.030;4.696;2024-03-08T06:58:00;34.50;;;23.60;;
16504;SDS011;8365;51.030;4.696;2024-03-08T07:00:30;36.93;;;24.20;;
16504;SDS011;8365;51.030;4.696;2024-03-08T07:03:01;34.97;;;23.67;;
16504;SDS011;8365;51.030;4.696;2024-03-08T07:05:32;39.90;;;23.43;;
16504;SDS011;8365;51.030;4.696;2024-03-08T07:08:05;34.23;;;24.07;;
16504;SDS011;8365;51.030;4.696;2024-03-08T07:10:38;34.87;;;25.33;;
16504;SDS011;8365;51.030;4.696;2024-03-08T07:13:11;35.57;;;23.50;;
16504;SDS011;8365;51.030;4.696;2024-03-08T07:15:43;35.27;;;22.60;;
16504;SDS011;8365;51.030;4.696;2024-03-08T07:18:15;34.00;;;23.20;;
16504;SDS011;8365;51.030;4.696;2024-03-08T07:20:46;34.77;;;24.37;;
16504;SDS011;8365;51.030;4.696;2024-03-08T07:23:16;33.00;;;22.93;;
16504;SDS011;8365;51.030;4.696;2024-03-08T07:26:07;35.80;;;23.47;;
16504;SDS011;8365;51.030;4.696;2024-03-08T07:28:37;36.43;;;23.13;;
16504;SDS011;8365;51.030;4.696;2024-03-08T07:31:08;33.27;;;22.93;;
16504;SDS011;8365;51.030;4.696;2024-03-08T07:33:56;32.13;;;22.13;;
16504;SDS011;8365;51.030;4.696;2024-03-08T07:36:28;32.17;;;21.33;;
16504;SDS011;8365;51.030;4.696;2024-03-08T07:38:59;31.80;;;22.03;;
16504;SDS011;8365;51.030;4.696;2024-03-08T07:41:29;32.33;;;22.90;;
16504;SDS011;8365;51.030;4.696;2024-03-08T07:44:00;31.23;;;23.13;;
16504;SDS011;8365;51.030;4.696;2024-03-08T07:46:33;34.53;;;22.40;;
16504;SDS011;8365;51.030;4.696;2024-03-08T07:49:04;30.00;;;21.33;;
16504;SDS011;8365;51.030;4.696;2024-03-08T07:51:34;31.07;;;21.67;;
16504;SDS011;8365;51.030;4.696;2024-03-08T07:54:05;31.03;;;21.57;;
16504;SDS011;8365;51.030;4.696;2024-03-08T07:56:35;34.83;;;24.17;;
16504;SDS011;8365;51.030;4.696;2024-03-08T07:59:06;31.53;;;22.17;;
16504;SDS011;8365;51.030;4.696;2024-03-08T08:01:37;32.17;;;22.30;;
16504;SDS011;8365;51.030;4.696;2024-03-08T08:04:08;30.97;;;22.13;;
16504;SDS011;8365;51.030;4.696;2024-03-08T08:06:42;32.57;;;21.93;;
16504;SDS011;8365;51.030;4.696;2024-03-08T08:09:12;28.77;;;20.30;;
16504;SDS011;8365;51.030;4.696;2024-03-08T08:11:52;32.57;;;21.57;;
16504;SDS011;8365;51.030;4.696;2024-03-08T08:14:22;32.77;;;20.50;;
16504;SDS011;8365;51.030;4.696;2024-03-08T08:16:55;31.77;;;21.03;;
16504;SDS011;8365;51.030;4.696;2024-03-08T08:19:29;26.63;;;20.47;;
16504;SDS011;8365;51.030;4.696;2024-03-08T08:22:00;29.40;;;20.30;;
16504;SDS011;8365;51.030;4.696;2024-03-08T08:24:32;26.57;;;19.93;;
16504;SDS011;8365;51.030;4.696;2024-03-08T08:27:03;31.23;;;20.93;;
16504;SDS011;8365;51.030;4.696;2024-03-08T08:29:36;28.50;;;20.70;;
16504;SDS011;8365;51.030;4.696;2024-03-08T08:32:07;29.97;;;21.37;;
16504;SDS011;8365;51.030;4.696;2024-03-08T08:34:38;26.43;;;19.83;;
16504;SDS011;8365;51.030;4.696;2024-03-08T08:37:08;28.60;;;21.20;;
16504;SDS011;8365;51.030;4.696;2024-03-08T08:39:39;24.50;;;19.13;;
16504;SDS011;8365;51.030;4.696;2024-03-08T08:42:10;28.33;;;20.07;;
16504;SDS011;8365;51.030;4.696;2024-03-08T08:44:41;27.47;;;19.40;;
16504;SDS011;8365;51.030;4.696;2024-03-08T08:47:11;26.67;;;20.33;;
16504;SDS011;8365;51.030;4.696;2024-03-08T08:49:43;25.60;;;19.77;;
16504;SDS011;8365;51.030;4.696;2024-03-08T08:52:14;27.17;;;19.80;;
16504;SDS011;8365;51.030;4.696;2024-03-08T08:54:46;24.37;;;18.93;;
16504;SDS011;8365;51.030;4.696;2024-03-08T08:57:17;23.93;;;19.50;;
16504;SDS011;8365;51.030;4.696;2024-03-08T08:59:47;24.93;;;19.37;;
16504;SDS011;8365;51.030;4.696;2024-03-08T09:02:18;23.13;;;18.63;;
16504;SDS011;8365;51.030;4.696;2024-03-08T09:04:51;24.87;;;19.27;;
16504;SDS011;8365;51.030;4.696;2024-03-08T09:07:21;22.77;;;18.50;;
16504;SDS011;8365;51.030;4.696;2024-03-08T09:09:52;23.90;;;18.00;;
16504;SDS011;8365;51.030;4.696;2024-03-08T09:12:26;22.73;;;18.37;;
16504;SDS011;8365;51.030;4.696;2024-03-08T09:14:58;24.60;;;18.63;;
16504;SDS011;8365;51.030;4.696;2024-03-08T09:17:29;24.80;;;19.40;;
16504;SDS011;8365;51.030;4.696;2024-03-08T09:20:03;23.93;;;19.10;;
16504;SDS011;8365;51.030;4.696;2024-03-08T09:22:34;22.00;;;17.63;;
16504;SDS011;8365;51.030;4.696;2024-03-08T09:25:05;20.97;;;17.40;;
16504;SDS011;8365;51.030;4.696;2024-03-08T09:27:37;19.97;;;17.57;;
16504;SDS011;8365;51.030;4.696;2024-03-08T09:30:09;20.93;;;17.90;;
16504;SDS011;8365;51.030;4.696;2024-03-08T09:32:43;25.97;;;18.10;;
16504;SDS011;8365;51.030;4.696;2024-03-08T09:35:13;21.87;;;17.30;;
16504;SDS011;8365;51.030;4.696;2024-03-08T09:37:45;20.37;;;16.80;;
16504;SDS011;8365;51.030;4.696;2024-03-08T09:40:17;22.40;;;17.43;;
16504;SDS011;8365;51.030;4.696;2024-03-08T09:42:49;20.97;;;16.57;;
16504;SDS011;8365;51.030;4.696;2024-03-08T09:45:22;20.57;;;16.93;;
16504;SDS011;8365;51.030;4.696;2024-03-08T09:47:55;22.00;;;16.83;;
16504;SDS011;8365;51.030;4.696;2024-03-08T09:50:28;20.13;;;16.00;;
16504;SDS011;8365;51.030;4.696;2024-03-08T09:52:59;20.97;;;16.50;;
16504;SDS011;8365;51.030;4.696;2024-03-08T09:55:32;18.37;;;16.13;;
16504;SDS011;8365;51.030;4.696;2024-03-08T09:58:06;21.67;;;16.60;;
16504;SDS011;8365;51.030;4.696;2024-03-08T10:00:57;18.97;;;16.33;;
16504;SDS011;8365;51.030;4.696;2024-03-08T10:03:28;18.67;;;15.83;;
16504;SDS011;8365;51.030;4.696;2024-03-08T10:05:59;18.07;;;15.93;;
16504;SDS011;8365;51.030;4.696;2024-03-08T10:08:32;18.47;;;15.50;;
16504;SDS011;8365;51.030;4.696;2024-03-08T10:11:03;19.03;;;16.10;;
16504;SDS011;8365;51.030;4.696;2024-03-08T10:13:33;20.23;;;16.47;;
16504;SDS011;8365;51.030;4.696;2024-03-08T10:16:05;22.13;;;16.93;;
16504;SDS011;8365;51.030;4.696;2024-03-08T10:18:36;18.57;;;15.70;;
16504;SDS011;8365;51.030;4.696;2024-03-08T10:21:09;19.53;;;16.80;;
16504;SDS011;8365;51.030;4.696;2024-03-08T10:23:43;18.00;;;16.10;;
16504;SDS011;8365;51.030;4.696;2024-03-08T10:26:17;23.87;;;16.17;;
16504;SDS011;8365;51.030;4.696;2024-03-08T10:28:51;20.60;;;15.13;;
16504;SDS011;8365;51.030;4.696;2024-03-08T10:31:22;17.80;;;15.47;;
16504;SDS011;8365;51.030;4.696;2024-03-08T10:33:53;16.67;;;14.87;;
16504;SDS011;8365;51.030;4.696;2024-03-08T10:36:24;20.63;;;16.23;;
16504;SDS011;8365;51.030;4.696;2024-03-08T10:38:55;18.13;;;15.57;;
16504;SDS011;8365;51.030;4.696;2024-03-08T10:41:28;19.53;;;15.57;;
16504;SDS011;8365;51.030;4.696;2024-03-08T10:49:39;16.90;;;14.97;;
16504;SDS011;8365;51.030;4.696;2024-03-08T10:52:21;16.33;;;14.47;;
16504;SDS011;8365;51.030;4.696;2024-03-08T10:54:52;18.17;;;15.77;;
16504;SDS011;8365;51.030;4.696;2024-03-08T10:57:24;17.70;;;15.90;;
16504;SDS011;8365;51.030;4.696;2024-03-08T10:59:57;16.83;;;14.77;;
16504;SDS011;8365;51.030;4.696;2024-03-08T11:02:28;18.30;;;15.23;;
16504;SDS011;8365;51.030;4.696;2024-03-08T11:05:00;19.47;;;15.10;;
16504;SDS011;8365;51.030;4.696;2024-03-08T11:07:34;16.63;;;14.87;;
16504;SDS011;8365;51.030;4.696;2024-03-08T11:10:05;17.77;;;14.70;;
16504;SDS011;8365;51.030;4.696;2024-03-08T11:12:48;16.93;;;14.77;;
16504;SDS011;8365;51.030;4.696;2024-03-08T11:15:19;17.93;;;15.77;;
16504;SDS011;8365;51.030;4.696;2024-03-08T11:17:49;18.58;;;15.43;;
16504;SDS011;8365;51.030;4.696;2024-03-08T11:20:20;18.40;;;15.48;;
16504;SDS011;8365;51.030;4.696;2024-03-08T11:22:54;17.90;;;14.93;;
16504;SDS011;8365;51.030;4.696;2024-03-08T11:25:37;18.58;;;14.48;;
16504;SDS011;8365;51.030;4.696;2024-03-08T11:28:13;16.48;;;14.75;;
16504;SDS011;8365;51.030;4.696;2024-03-08T11:33:29;19.57;;;15.23;;
16504;SDS011;8365;51.030;4.696;2024-03-08T11:38:44;18.63;;;15.32;;
16504;SDS011;8365;51.030;4.696;2024-03-08T11:41:19;16.55;;;14.75;;
16504;SDS011;8365;51.030;4.696;2024-03-08T11:44:04;18.52;;;14.98;;
16504;SDS011;8365;51.030;4.696;2024-03-08T11:46:39;19.45;;;15.05;;
16504;SDS011;8365;51.030;4.696;2024-03-08T11:49:16;18.15;;;14.40;;
16504;SDS011;8365;51.030;4.696;2024-03-08T11:51:47;17.45;;;14.82;;
16504;SDS011;8365;51.030;4.696;2024-03-08T11:54:24;17.10;;;14.73;;
16504;SDS011;8365;51.030;4.696;2024-03-08T11:56:54;16.25;;;14.52;;
16504;SDS011;8365;51.030;4.696;2024-03-08T11:59:30;17.17;;;14.60;;
16504;SDS011;8365;51.030;4.696;2024-03-08T12:02:02;17.10;;;15.05;;
16504;SDS011;8365;51.030;4.696;2024-03-08T12:04:33;16.67;;;14.95;;
16504;SDS011;8365;51.030;4.696;2024-03-08T12:07:09;16.23;;;14.52;;
16504;SDS011;8365;51.030;4.696;2024-03-08T12:09:41;16.90;;;15.10;;
16504;SDS011;8365;51.030;4.696;2024-03-08T12:12:16;16.77;;;14.98;;
16504;SDS011;8365;51.030;4.696;2024-03-08T12:14:47;17.95;;;15.90;;
16504;SDS011;8365;51.030;4.696;2024-03-08T12:17:17;19.13;;;15.13;;
16504;SDS011;8365;51.030;4.696;2024-03-08T12:19:48;17.65;;;14.65;;
16504;SDS011;8365;51.030;4.696;2024-03-08T12:22:18;18.00;;;14.10;;
16504;SDS011;8365;51.030;4.696;2024-03-08T12:25:02;16.27;;;14.60;;
16504;SDS011;8365;51.030;4.696;2024-03-08T12:27:35;17.10;;;15.35;;
16504;SDS011;8365;51.030;4.696;2024-03-08T12:30:26;16.38;;;14.68;;
16504;SDS011;8365;51.030;4.696;2024-03-08T12:32:58;16.70;;;14.98;;
16504;SDS011;8365;51.030;4.696;2024-03-08T12:35:30;18.13;;;15.32;;
16504;SDS011;8365;51.030;4.696;2024-03-08T12:38:02;16.70;;;15.00;;
16504;SDS011;8365;51.030;4.696;2024-03-08T12:40:33;17.10;;;15.30;;
16504;SDS011;8365;51.030;4.696;2024-03-08T12:43:10;16.90;;;15.05;;
16504;SDS011;8365;51.030;4.696;2024-03-08T12:45:42;18.15;;;16.25;;
16504;SDS011;8365;51.030;4.696;2024-03-08T12:48:12;18.05;;;16.13;;
16504;SDS011;8365;51.030;4.696;2024-03-08T12:50:45;17.63;;;15.63;;
16504;SDS011;8365;51.030;4.696;2024-03-08T12:53:17;16.63;;;14.93;;
16504;SDS011;8365;51.030;4.696;2024-03-08T12:55:50;17.13;;;15.32;;
16504;SDS011;8365;51.030;4.696;2024-03-08T12:58:22;17.02;;;15.10;;
16504;SDS011;8365;51.030;4.696;2024-03-08T13:00:52;16.55;;;14.77;;
16504;SDS011;8365;51.030;4.696;2024-03-08T13:03:23;17.48;;;15.68;;
16504;SDS011;8365;51.030;4.696;2024-03-08T13:05:56;17.08;;;15.23;;
16504;SDS011;8365;51.030;4.696;2024-03-08T13:08:30;19.50;;;15.35;;
16504;SDS011;8365;51.030;4.696;2024-03-08T13:11:01;17.42;;;15.70;;
16504;SDS011;8365;51.030;4.696;2024-03-08T13:13:34;17.23;;;15.32;;
16504;SDS011;8365;51.030;4.696;2024-03-08T13:16:10;17.13;;;15.43;;
16504;SDS011;8365;51.030;4.696;2024-03-08T13:18:42;17.27;;;15.45;;
16504;SDS011;8365;51.030;4.696;2024-03-08T13:21:13;16.70;;;14.90;;
16504;SDS011;8365;51.030;4.696;2024-03-08T13:23:44;17.52;;;15.48;;
16504;SDS011;8365;51.030;4.696;2024-03-08T13:26:19;17.38;;;15.45;;
16504;SDS011;8365;51.030;4.696;2024-03-08T13:28:50;16.50;;;14.75;;
16504;SDS011;8365;51.030;4.696;2024-03-08T13:31:23;17.67;;;14.93;;
16504;SDS011;8365;51.030;4.696;2024-03-08T13:33:56;17.23;;;15.43;;
16504;SDS011;8365;51.030;4.696;2024-03-08T13:36:30;16.08;;;14.38;;
16504;SDS011;8365;51.030;4.696;2024-03-08T13:39:09;16.15;;;14.48;;
16504;SDS011;8365;51.030;4.696;2024-03-08T13:41:45;16.85;;;15.07;;
16504;SDS011;8365;51.030;4.696;2024-03-08T13:44:15;16.88;;;15.07;;
16504;SDS011;8365;51.030;4.696;2024-03-08T13:46:47;16.15;;;14.52;;
16504;SDS011;8365;51.030;4.696;2024-03-08T13:49:17;16.45;;;14.57;;
16504;SDS011;8365;51.030;4.696;2024-03-08T13:51:48;17.08;;;14.88;;
16504;SDS011;8365;51.030;4.696;2024-03-08T13:54:19;16.42;;;14.73;;
16504;SDS011;8365;51.030;4.696;2024-03-08T13:56:53;17.27;;;15.05;;
16504;SDS011;8365;51.030;4.696;2024-03-08T13:59:24;15.77;;;14.18;;
16504;SDS011;8365;51.030;4.696;2024-03-08T14:01:59;16.52;;;14.50;;
16504;SDS011;8365;51.030;4.696;2024-03-08T14:04:31;15.90;;;14.00;;
16504;SDS011;8365;51.030;4.696;2024-03-08T14:07:02;16.13;;;14.52;;
16504;SDS011;8365;51.030;4.696;2024-03-08T14:09:36;18.20;;;14.93;;
16504;SDS011;8365;51.030;4.696;2024-03-08T14:12:07;16.88;;;15.07;;
16504;SDS011;8365;51.030;4.696;2024-03-08T14:14:37;18.27;;;15.55;;
16504;SDS011;8365;51.030;4.696;2024-03-08T14:17:09;17.13;;;14.90;;
16504;SDS011;8365;51.030;4.696;2024-03-08T14:19:40;16.77;;;15.05;;
16504;SDS011;8365;51.030;4.696;2024-03-08T14:22:11;17.90;;;14.98;;
16504;SDS011;8365;51.030;4.696;2024-03-08T14:24:44;18.75;;;15.35;;
16504;SDS011;8365;51.030;4.696;2024-03-08T14:27:15;17.80;;;15.00;;
16504;SDS011;8365;51.030;4.696;2024-03-08T14:29:47;19.98;;;15.60;;
16504;SDS011;8365;51.030;4.696;2024-03-08T14:32:18;17.05;;;15.25;;
16504;SDS011;8365;51.030;4.696;2024-03-08T14:34:52;17.17;;;15.40;;
16504;SDS011;8365;51.030;4.696;2024-03-08T14:37:25;19.60;;;15.60;;
16504;SDS011;8365;51.030;4.696;2024-03-08T14:39:59;16.95;;;14.93;;
16504;SDS011;8365;51.030;4.696;2024-03-08T14:42:29;16.10;;;14.43;;
16504;SDS011;8365;51.030;4.696;2024-03-08T14:45:02;17.25;;;15.32;;
16504;SDS011;8365;51.030;4.696;2024-03-08T14:47:33;17.73;;;15.02;;
16504;SDS011;8365;51.030;4.696;2024-03-08T14:50:04;16.83;;;15.13;;
16504;SDS011;8365;51.030;4.696;2024-03-08T14:52:37;16.63;;;14.43;;
16504;SDS011;8365;51.030;4.696;2024-03-08T14:55:09;15.45;;;13.73;;
16504;SDS011;8365;51.030;4.696;2024-03-08T14:57:44;18.63;;;15.57;;
16504;SDS011;8365;51.030;4.696;2024-03-08T15:00:15;18.10;;;15.50;;
16504;SDS011;8365;51.030;4.696;2024-03-08T15:02:56;16.20;;;14.50;;
16504;SDS011;8365;51.030;4.696;2024-03-08T15:05:27;18.20;;;15.43;;
16504;SDS011;8365;51.030;4.696;2024-03-08T15:07:58;16.67;;;14.57;;
16504;SDS011;8365;51.030;4.696;2024-03-08T15:10:39;15.88;;;14.27;;
16504;SDS011;8365;51.030;4.696;2024-03-08T15:13:10;16.77;;;14.95;;